sensor_id;sensor_type;location;lat;lon;timestamp;pressure;altitude;pressure_sealevel;temperature;humidity
21234;BME280;10774;42.178;26.578;2023-02-26T00:02:00;99149.56;;;13.41;100.00
21234;BME280;10774;42.178;26.578;2023-02-26T00:04:26;99146.88;;;13.41;100.00
21234;BME280;10774;42.178;26.578;2023-02-26T00:06:52;99159.09;;;13.45;100.00
21234;BME280;10774;42.178;26.578;2023-02-26T00:09:18;99150.28;;;13.43;100.00
21234;BME280;10774;42.178;26.578;2023-02-26T00:11:44;99141.25;;;13.23;100.00
21234;BME280;10774;42.178;26.578;2023-02-26T00:14:13;99155.09;;;13.18;100.00
21234;BME280;10774;42.178;26.578;2023-02-26T00:16:39;99150.97;;;13.14;100.00
21234;BME280;10774;42.178;26.578;2023-02-26T00:19:06;99155.91;;;13.09;100.00
21234;BME280;10774;42.178;26.578;2023-02-26T00:21:34;99133.44;;;12.99;100.00
21234;BME280;10774;42.178;26.578;2023-02-26T00:24:00;99144.66;;;13.04;100.00
21234;BME280;10774;42.178;26.578;2023-02-26T00:26:26;99145.53;;;13.04;100.00
21234;BME280;10774;42.178;26.578;2023-02-26T00:28:53;99131.19;;;13.04;100.00
21234;BME280;10774;42.178;26.578;2023-02-26T00:31:20;99125.22;;;13.00;100.00
21234;BME280;10774;42.178;26.578;2023-02-26T00:33:49;99138.03;;;13.08;100.00
21234;BME280;10774;42.178;26.578;2023-02-26T00:39:21;99148.00;;;13.17;100.00
21234;BME280;10774;42.178;26.578;2023-02-26T00:41:52;99146.78;;;13.21;100.00
21234;BME280;10774;42.178;26.578;2023-02-26T00:44:17;99156.22;;;13.16;100.00
21234;BME280;10774;42.178;26.578;2023-02-26T00:46:49;99147.47;;;13.23;100.00
21234;BME280;10774;42.178;26.578;2023-02-26T00:54:59;99161.22;;;13.20;100.00
21234;BME280;10774;42.178;26.578;2023-02-26T00:57:24;99169.69;;;13.16;100.00
21234;BME280;10774;42.178;26.578;2023-02-26T00:59:50;99177.88;;;13.25;100.00
21234;BME280;10774;42.178;26.578;2023-02-26T01:02:15;99164.44;;;13.14;100.00
21234;BME280;10774;42.178;26.578;2023-02-26T01:04:41;99170.81;;;13.13;100.00
21234;BME280;10774;42.178;26.578;2023-02-26T01:07:08;99147.50;;;13.02;100.00
21234;BME280;10774;42.178;26.578;2023-02-26T01:09:35;99175.56;;;13.00;100.00
21234;BME280;10774;42.178;26.578;2023-02-26T01:12:08;99176.72;;;13.07;100.00
21234;BME280;10774;42.178;26.578;2023-02-26T01:14:34;99165.84;;;13.08;100.00
21234;BME280;10774;42.178;26.578;2023-02-26T01:19:56;99164.38;;;13.04;100.00
21234;BME280;10774;42.178;26.578;2023-02-26T01:22:41;99167.78;;;13.06;100.00
21234;BME280;10774;42.178;26.578;2023-02-26T01:25:11;99168.13;;;13.13;100.00
21234;BME280;10774;42.178;26.578;2023-02-26T01:27:37;99172.97;;;13.19;100.00
21234;BME280;10774;42.178;26.578;2023-02-26T01:30:04;99173.53;;;13.13;100.00
21234;BME280;10774;42.178;26.578;2023-02-26T01:32:41;99198.94;;;13.20;100.00
21234;BME280;10774;42.178;26.578;2023-02-26T01:35:25;99185.47;;;13.20;100.00
21234;BME280;10774;42.178;26.578;2023-02-26T01:38:02;99171.06;;;13.10;100.00
21234;BME280;10774;42.178;26.578;2023-02-26T01:43:30;99175.75;;;13.08;100.00
21234;BME280;10774;42.178;26.578;2023-02-26T01:46:04;99175.75;;;13.08;100.00
21234;BME280;10774;42.178;26.578;2023-02-26T01:48:47;99190.53;;;13.14;100.00
21234;BME280;10774;42.178;26.578;2023-02-26T01:51:13;99198.03;;;13.10;100.00
21234;BME280;10774;42.178;26.578;2023-02-26T01:53:38;99169.16;;;13.01;100.00
21234;BME280;10774;42.178;26.578;2023-02-26T01:56:24;99186.25;;;13.11;100.00
21234;BME280;10774;42.178;26.578;2023-02-26T01:58:49;99200.72;;;13.10;100.00
21234;BME280;10774;42.178;26.578;2023-02-26T02:01:15;99198.47;;;13.15;100.00
21234;BME280;10774;42.178;26.578;2023-02-26T02:03:41;99192.84;;;13.18;100.00
21234;BME280;10774;42.178;26.578;2023-02-26T02:06:10;99186.84;;;13.15;100.00
21234;BME280;10774;42.178;26.578;2023-02-26T02:08:39;99205.06;;;13.22;100.00
21234;BME280;10774;42.178;26.578;2023-02-26T02:11:07;99180.31;;;13.17;100.00
21234;BME280;10774;42.178;26.578;2023-02-26T02:13:50;99200.78;;;13.20;100.00
21234;BME280;10774;42.178;26.578;2023-02-26T02:24:34;99219.28;;;13.24;100.00
21234;BME280;10774;42.178;26.578;2023-02-26T02:35:02;99222.47;;;13.39;100.00
21234;BME280;10774;42.178;26.578;2023-02-26T02:37:47;99218.59;;;13.32;100.00
21234;BME280;10774;42.178;26.578;2023-02-26T02:40:19;99222.75;;;13.36;100.00
21234;BME280;10774;42.178;26.578;2023-02-26T02:43:16;99230.44;;;13.41;100.00
21234;BME280;10774;42.178;26.578;2023-02-26T02:45:43;99228.44;;;13.43;100.00
21234;BME280;10774;42.178;26.578;2023-02-26T02:48:35;99233.13;;;13.41;100.00
21234;BME280;10774;42.178;26.578;2023-02-26T02:51:09;99227.75;;;13.41;100.00
21234;BME280;10774;42.178;26.578;2023-02-26T02:54:00;99235.09;;;13.39;100.00
21234;BME280;10774;42.178;26.578;2023-02-26T02:59:26;99240.03;;;13.33;100.00
21234;BME280;10774;42.178;26.578;2023-02-26T03:02:00;99239.16;;;13.33;100.00
21234;BME280;10774;42.178;26.578;2023-02-26T03:04:28;99253.94;;;13.39;100.00
21234;BME280;10774;42.178;26.578;2023-02-26T03:06:54;99249.31;;;13.41;100.00
21234;BME280;10774;42.178;26.578;2023-02-26T03:09:19;99244.44;;;13.34;100.00
21234;BME280;10774;42.178;26.578;2023-02-26T03:11:45;99253.94;;;13.39;100.00
21234;BME280;10774;42.178;26.578;2023-02-26T03:14:11;99250.28;;;13.40;100.00
21234;BME280;10774;42.178;26.578;2023-02-26T03:35:25;99253.50;;;13.33;100.00
21234;BME280;10774;42.178;26.578;2023-02-26T03:37:55;99267.63;;;13.47;100.00
21234;BME280;10774;42.178;26.578;2023-02-26T03:40:58;99264.47;;;13.42;100.00
21234;BME280;10774;42.178;26.578;2023-02-26T03:43:40;99247.66;;;13.28;100.00
21234;BME280;10774;42.178;26.578;2023-02-26T03:46:14;99254.25;;;13.36;100.00
21234;BME280;10774;42.178;26.578;2023-02-26T03:48:42;99277.25;;;13.40;100.00
21234;BME280;10774;42.178;26.578;2023-02-26T03:51:09;99266.72;;;13.37;100.00
21234;BME280;10774;42.178;26.578;2023-02-26T03:53:43;99246.00;;;13.37;100.00
21234;BME280;10774;42.178;26.578;2023-02-26T03:56:36;99258.63;;;13.37;100.00
21234;BME280;10774;42.178;26.578;2023-02-26T03:59:02;99255.94;;;13.37;100.00
21234;BME280;10774;42.178;26.578;2023-02-26T04:01:33;99247.16;;;13.34;100.00
21234;BME280;10774;42.178;26.578;2023-02-26T04:04:08;99243.72;;;13.32;100.00
21234;BME280;10774;42.178;26.578;2023-02-26T04:06:36;99245.41;;;13.33;100.00
21234;BME280;10774;42.178;26.578;2023-02-26T04:09:03;99249.09;;;13.32;100.00
21234;BME280;10774;42.178;26.578;2023-02-26T04:11:29;99240.91;;;13.34;100.00
21234;BME280;10774;42.178;26.578;2023-02-26T04:13:55;99259.09;;;13.42;100.00
21234;BME280;10774;42.178;26.578;2023-02-26T04:16:21;99236.38;;;13.34;100.00
21234;BME280;10774;42.178;26.578;2023-02-26T04:18:47;99253.00;;;13.40;100.00
21234;BME280;10774;42.178;26.578;2023-02-26T04:21:15;99249.09;;;13.32;100.00
21234;BME280;10774;42.178;26.578;2023-02-26T04:23:41;99269.03;;;13.41;100.00
21234;BME280;10774;42.178;26.578;2023-02-26T04:26:06;99249.38;;;13.29;100.00
21234;BME280;10774;42.178;26.578;2023-02-26T04:28:32;99253.94;;;13.39;100.00
21234;BME280;10774;42.178;26.578;2023-02-26T04:30:59;99265.94;;;13.46;100.00
21234;BME280;10774;42.178;26.578;2023-02-26T04:33:24;99251.16;;;13.40;100.00
21234;BME280;10774;42.178;26.578;2023-02-26T04:35:51;99255.16;;;13.46;100.00
21234;BME280;10774;42.178;26.578;2023-02-26T04:38:17;99252.44;;;13.46;100.00
21234;BME280;10774;42.178;26.578;2023-02-26T04:40:42;99238.69;;;13.49;100.00
21234;BME280;10774;42.178;26.578;2023-02-26T04:43:08;99228.91;;;13.48;100.00
21234;BME280;10774;42.178;26.578;2023-02-26T04:45:33;99238.88;;;13.57;100.00
21234;BME280;10774;42.178;26.578;2023-02-26T04:47:59;99231.59;;;13.48;100.00
21234;BME280;10774;42.178;26.578;2023-02-26T04:50:24;99239.81;;;13.46;100.00
21234;BME280;10774;42.178;26.578;2023-02-26T04:52:50;99233.84;;;13.43;100.00
21234;BME280;10774;42.178;26.578;2023-02-26T04:55:15;99240.94;;;13.44;100.00
21234;BME280;10774;42.178;26.578;2023-02-26T04:57:41;99250.31;;;13.49;100.00
21234;BME280;10774;42.178;26.578;2023-02-26T05:00:07;99238.53;;;13.41;100.00
21234;BME280;10774;42.178;26.578;2023-02-26T05:02:32;99244.63;;;13.43;100.00
21234;BME280;10774;42.178;26.578;2023-02-26T05:04:58;99250.88;;;13.43;100.00
21234;BME280;10774;42.178;26.578;2023-02-26T05:07:23;99257.38;;;13.41;100.00
21234;BME280;10774;42.178;26.578;2023-02-26T05:09:49;99249.38;;;13.29;100.00
21234;BME280;10774;42.178;26.578;2023-02-26T05:12:14;99264.47;;;13.42;100.00
21234;BME280;10774;42.178;26.578;2023-02-26T05:14:40;99282.97;;;13.46;100.00
21234;BME280;10774;42.178;26.578;2023-02-26T05:17:06;99271.56;;;13.43;100.00
21234;BME280;10774;42.178;26.578;2023-02-26T05:19:31;99270.13;;;13.39;100.00
21234;BME280;10774;42.178;26.578;2023-02-26T05:21:56;99281.75;;;13.39;99.38
21234;BME280;10774;42.178;26.578;2023-02-26T05:24:22;99287.22;;;13.49;98.12
21234;BME280;10774;42.178;26.578;2023-02-26T05:26:47;99283.28;;;13.53;97.51
21234;BME280;10774;42.178;26.578;2023-02-26T05:29:13;99280.13;;;13.48;97.17
21234;BME280;10774;42.178;26.578;2023-02-26T05:31:38;99265.53;;;13.50;96.93
21234;BME280;10774;42.178;26.578;2023-02-26T05:34:04;99262.00;;;13.50;96.94
21234;BME280;10774;42.178;26.578;2023-02-26T05:36:29;99269.41;;;13.57;96.65
21234;BME280;10774;42.178;26.578;2023-02-26T05:38:54;99291.03;;;13.67;96.58
21234;BME280;10774;42.178;26.578;2023-02-26T05:41:20;99292.72;;;13.68;96.30
21234;BME280;10774;42.178;26.578;2023-02-26T05:43:45;99293.44;;;13.70;96.32
21234;BME280;10774;42.178;26.578;2023-02-26T05:46:11;99291.03;;;13.67;95.67
21234;BME280;10774;42.178;26.578;2023-02-26T05:48:36;99282.53;;;13.72;94.70
21234;BME280;10774;42.178;26.578;2023-02-26T05:51:01;99298.63;;;13.83;94.71
21234;BME280;10774;42.178;26.578;2023-02-26T05:53:27;99312.97;;;13.83;94.01
21234;BME280;10774;42.178;26.578;2023-02-26T05:55:53;99326.06;;;13.88;93.75
21234;BME280;10774;42.178;26.578;2023-02-26T05:58:18;99324.03;;;13.80;93.37
21234;BME280;10774;42.178;26.578;2023-02-26T06:00:43;99315.53;;;13.85;92.78
21234;BME280;10774;42.178;26.578;2023-02-26T06:03:09;99330.91;;;13.94;92.32
21234;BME280;10774;42.178;26.578;2023-02-26T06:05:34;99338.31;;;13.92;92.39
21234;BME280;10774;42.178;26.578;2023-02-26T06:08:00;99346.25;;;13.94;91.50
21234;BME280;10774;42.178;26.578;2023-02-26T06:10:26;99331.91;;;13.93;90.85
21234;BME280;10774;42.178;26.578;2023-02-26T06:12:52;99340.06;;;14.03;90.41
21234;BME280;10774;42.178;26.578;2023-02-26T06:15:17;99338.06;;;14.05;89.99
21234;BME280;10774;42.178;26.578;2023-02-26T06:17:42;99338.78;;;14.07;90.11
21234;BME280;10774;42.178;26.578;2023-02-26T06:20:08;99339.38;;;14.10;89.23
21234;BME280;10774;42.178;26.578;2023-02-26T06:22:34;99316.72;;;14.02;89.33
21234;BME280;10774;42.178;26.578;2023-02-26T06:25:00;99329.97;;;14.05;88.92
21234;BME280;10774;42.178;26.578;2023-02-26T06:27:25;99339.81;;;14.16;87.92
21234;BME280;10774;42.178;26.578;2023-02-26T06:29:51;99351.22;;;14.19;87.26
21234;BME280;10774;42.178;26.578;2023-02-26T06:32:16;99352.47;;;14.15;87.31
21234;BME280;10774;42.178;26.578;2023-02-26T06:34:42;99365.84;;;14.26;86.49
21234;BME280;10774;42.178;26.578;2023-02-26T06:37:07;99351.66;;;14.24;86.71
21234;BME280;10774;42.178;26.578;2023-02-26T06:39:33;99349.22;;;14.21;86.52
21234;BME280;10774;42.178;26.578;2023-02-26T06:41:58;99366.03;;;14.34;86.61
21234;BME280;10774;42.178;26.578;2023-02-26T06:44:24;99385.41;;;14.39;86.55
21234;BME280;10774;42.178;26.578;2023-02-26T06:46:49;99383.41;;;14.42;86.33
21234;BME280;10774;42.178;26.578;2023-02-26T06:49:15;99359.81;;;14.44;86.52
21234;BME280;10774;42.178;26.578;2023-02-26T06:51:40;99349.28;;;14.41;86.43
21234;BME280;10774;42.178;26.578;2023-02-26T06:54:06;99374.13;;;14.55;86.29
21234;BME280;10774;42.178;26.578;2023-02-26T06:56:31;99364.72;;;14.59;86.25
21234;BME280;10774;42.178;26.578;2023-02-26T06:58:57;99358.47;;;14.59;86.12
21234;BME280;10774;42.178;26.578;2023-02-26T07:01:22;99360.06;;;14.61;85.42
21234;BME280;10774;42.178;26.578;2023-02-26T07:03:49;99357.19;;;14.63;85.68
21234;BME280;10774;42.178;26.578;2023-02-26T07:06:15;99375.72;;;14.77;85.97
21234;BME280;10774;42.178;26.578;2023-02-26T07:08:40;99357.66;;;14.78;85.73
21234;BME280;10774;42.178;26.578;2023-02-26T07:11:07;99377.56;;;14.86;85.48
21234;BME280;10774;42.178;26.578;2023-02-26T07:13:35;99362.78;;;14.90;85.87
21234;BME280;10774;42.178;26.578;2023-02-26T07:16:00;99372.34;;;14.95;85.26
21234;BME280;10774;42.178;26.578;2023-02-26T07:18:26;99352.72;;;14.93;85.50
21234;BME280;10774;42.178;26.578;2023-02-26T07:20:51;99380.75;;;15.11;85.46
21234;BME280;10774;42.178;26.578;2023-02-26T07:23:17;99360.00;;;15.21;85.15
21234;BME280;10774;42.178;26.578;2023-02-26T07:25:42;99361.13;;;15.28;85.62
21234;BME280;10774;42.178;26.578;2023-02-26T07:28:08;99370.66;;;15.32;85.21
21234;BME280;10774;42.178;26.578;2023-02-26T07:30:33;99388.59;;;15.43;85.43
21234;BME280;10774;42.178;26.578;2023-02-26T07:32:59;99372.25;;;15.35;85.74
21234;BME280;10774;42.178;26.578;2023-02-26T07:35:24;99373.94;;;15.36;85.65
21234;BME280;10774;42.178;26.578;2023-02-26T07:37:50;99385.31;;;15.49;86.55
21234;BME280;10774;42.178;26.578;2023-02-26T07:40:16;99378.19;;;15.48;86.36
21234;BME280;10774;42.178;26.578;2023-02-26T07:42:42;99367.94;;;15.52;86.24
21234;BME280;10774;42.178;26.578;2023-02-26T07:45:08;99361.13;;;15.57;86.60
21234;BME280;10774;42.178;26.578;2023-02-26T07:47:33;99356.00;;;15.64;86.16
21234;BME280;10774;42.178;26.578;2023-02-26T07:49:59;99365.97;;;15.73;86.47
21234;BME280;10774;42.178;26.578;2023-02-26T07:52:25;99368.34;;;15.76;87.31
21234;BME280;10774;42.178;26.578;2023-02-26T07:54:50;99363.09;;;15.84;87.30
21234;BME280;10774;42.178;26.578;2023-02-26T07:57:16;99359.63;;;15.92;86.49
21234;BME280;10774;42.178;26.578;2023-02-26T07:59:41;99366.19;;;15.99;86.41
21234;BME280;10774;42.178;26.578;2023-02-26T08:02:07;99373.56;;;16.07;85.38
21234;BME280;10774;42.178;26.578;2023-02-26T08:04:32;99374.38;;;16.17;84.75
21234;BME280;10774;42.178;26.578;2023-02-26T08:06:58;99392.34;;;16.18;83.85
21234;BME280;10774;42.178;26.578;2023-02-26T08:09:25;99399.13;;;16.32;84.58
21234;BME280;10774;42.178;26.578;2023-02-26T08:11:50;99403.22;;;16.45;83.35
21234;BME280;10774;42.178;26.578;2023-02-26T08:14:16;99405.75;;;16.57;83.15
21234;BME280;10774;42.178;26.578;2023-02-26T08:16:41;99409.31;;;16.57;81.79
21234;BME280;10774;42.178;26.578;2023-02-26T08:19:07;99429.53;;;16.63;81.31
21234;BME280;10774;42.178;26.578;2023-02-26T08:21:33;99412.66;;;16.79;79.76
21234;BME280;10774;42.178;26.578;2023-02-26T08:23:58;99409.56;;;16.91;79.31
21234;BME280;10774;42.178;26.578;2023-02-26T08:26:24;99413.69;;;16.95;78.28
21234;BME280;10774;42.178;26.578;2023-02-26T08:28:49;99434.47;;;17.05;78.14
21234;BME280;10774;42.178;26.578;2023-02-26T08:31:15;99421.75;;;16.87;75.77
21234;BME280;10774;42.178;26.578;2023-02-26T08:33:41;99432.22;;;17.00;74.25
21234;BME280;10774;42.178;26.578;2023-02-26T08:36:07;99432.16;;;17.10;74.28
21234;BME280;10774;42.178;26.578;2023-02-26T08:38:32;99424.25;;;16.98;74.10
21234;BME280;10774;42.178;26.578;2023-02-26T08:40:58;99417.22;;;17.23;73.47
21234;BME280;10774;42.178;26.578;2023-02-26T08:43:24;99420.19;;;17.30;72.94
21234;BME280;10774;42.178;26.578;2023-02-26T08:45:53;99419.78;;;17.25;72.14
21234;BME280;10774;42.178;26.578;2023-02-26T08:48:20;99415.34;;;17.24;72.94
21234;BME280;10774;42.178;26.578;2023-02-26T08:50:46;99421.78;;;17.23;70.99
21234;BME280;10774;42.178;26.578;2023-02-26T08:53:11;99433.41;;;17.15;70.63
21234;BME280;10774;42.178;26.578;2023-02-26T08:55:36;99424.16;;;17.08;68.99
21234;BME280;10774;42.178;26.578;2023-02-26T08:58:02;99427.59;;;17.10;70.15
21234;BME280;10774;42.178;26.578;2023-02-26T09:00:28;99428.25;;;16.94;70.99
21234;BME280;10774;42.178;26.578;2023-02-26T09:02:54;99428.25;;;16.94;71.47
21234;BME280;10774;42.178;26.578;2023-02-26T09:05:19;99419.81;;;16.97;69.69
21234;BME280;10774;42.178;26.578;2023-02-26T09:07:45;99417.38;;;17.04;67.43
21234;BME280;10774;42.178;26.578;2023-02-26T09:10:11;99418.22;;;17.05;65.98
21234;BME280;10774;42.178;26.578;2023-02-26T09:12:36;99423.94;;;17.02;65.12
21234;BME280;10774;42.178;26.578;2023-02-26T09:15:04;99425.34;;;17.06;64.73
21234;BME280;10774;42.178;26.578;2023-02-26T09:17:30;99411.69;;;16.97;64.69
21234;BME280;10774;42.178;26.578;2023-02-26T09:19:56;99409.00;;;17.15;64.00
21234;BME280;10774;42.178;26.578;2023-02-26T09:22:22;99410.16;;;17.13;62.90
21234;BME280;10774;42.178;26.578;2023-02-26T09:24:47;99398.31;;;17.14;62.49
21234;BME280;10774;42.178;26.578;2023-02-26T09:27:12;99394.59;;;17.33;62.51
21234;BME280;10774;42.178;26.578;2023-02-26T09:29:38;99398.19;;;17.51;62.36
21234;BME280;10774;42.178;26.578;2023-02-26T09:32:04;99392.13;;;17.57;61.33
21234;BME280;10774;42.178;26.578;2023-02-26T09:34:33;99390.44;;;17.56;60.70
21234;BME280;10774;42.178;26.578;2023-02-26T09:36:59;99407.44;;;17.66;59.78
21234;BME280;10774;42.178;26.578;2023-02-26T09:39:24;99405.81;;;17.56;59.41
21234;BME280;10774;42.178;26.578;2023-02-26T09:41:53;99413.41;;;17.70;60.00
21234;BME280;10774;42.178;26.578;2023-02-26T09:44:27;99397.88;;;17.36;59.83
21234;BME280;10774;42.178;26.578;2023-02-26T09:47:15;99412.19;;;17.64;59.51
21234;BME280;10774;42.178;26.578;2023-02-26T09:55:29;99397.16;;;17.34;59.00
21234;BME280;10774;42.178;26.578;2023-02-26T09:58:00;99392.97;;;17.58;59.54
21234;BME280;10774;42.178;26.578;2023-02-26T10:00:37;99385.22;;;17.63;59.86
21234;BME280;10774;42.178;26.578;2023-02-26T10:06:10;99410.09;;;17.94;61.02
21234;BME280;10774;42.178;26.578;2023-02-26T10:11:55;99420.16;;;18.01;61.31
21234;BME280;10774;42.178;26.578;2023-02-26T10:14:05;99406.09;;;18.06;61.13
21234;BME280;10774;42.178;26.578;2023-02-26T10:16:34;99413.59;;;18.12;60.92
21234;BME280;10774;42.178;26.578;2023-02-26T10:19:10;99420.22;;;18.10;61.39
21234;BME280;10774;42.178;26.578;2023-02-26T10:21:45;99426.34;;;18.12;61.01
21234;BME280;10774;42.178;26.578;2023-02-26T10:24:14;99422.13;;;18.17;60.83
21234;BME280;10774;42.178;26.578;2023-02-26T10:27:35;99419.94;;;17.95;60.67
21234;BME280;10774;42.178;26.578;2023-02-26T10:29:44;99423.25;;;17.71;61.61
21234;BME280;10774;42.178;26.578;2023-02-26T10:32:28;99419.25;;;17.57;62.94
21234;BME280;10774;42.178;26.578;2023-02-26T10:35:30;99413.75;;;17.67;62.51
21234;BME280;10774;42.178;26.578;2023-02-26T10:37:59;99411.41;;;17.54;62.04
21234;BME280;10774;42.178;26.578;2023-02-26T10:40:49;99396.22;;;17.43;62.05
21234;BME280;10774;42.178;26.578;2023-02-26T10:43:21;99394.91;;;17.47;62.98
21234;BME280;10774;42.178;26.578;2023-02-26T10:46:01;99406.38;;;17.59;61.84
21234;BME280;10774;42.178;26.578;2023-02-26T10:51:16;99396.38;;;17.60;60.76
21234;BME280;10774;42.178;26.578;2023-02-26T10:53:49;99406.84;;;17.55;60.48
21234;BME280;10774;42.178;26.578;2023-02-26T10:56:21;99393.34;;;17.45;60.93
21234;BME280;10774;42.178;26.578;2023-02-26T10:58:50;99384.34;;;17.44;60.16
21234;BME280;10774;42.178;26.578;2023-02-26T11:01:19;99409.56;;;17.55;59.89
21234;BME280;10774;42.178;26.578;2023-02-26T11:03:53;99394.00;;;17.57;59.90
21234;BME280;10774;42.178;26.578;2023-02-26T11:06:50;99396.88;;;17.73;59.37
21234;BME280;10774;42.178;26.578;2023-02-26T11:09:26;99379.78;;;17.63;59.26
21234;BME280;10774;42.178;26.578;2023-02-26T11:11:55;99384.44;;;17.52;59.03
21234;BME280;10774;42.178;26.578;2023-02-26T11:14:24;99387.16;;;17.52;59.06
21234;BME280;10774;42.178;26.578;2023-02-26T11:16:55;99386.69;;;17.39;59.35
21234;BME280;10774;42.178;26.578;2023-02-26T11:19:31;99395.38;;;17.43;59.64
21234;BME280;10774;42.178;26.578;2023-02-26T11:21:58;99393.59;;;17.51;59.77
21234;BME280;10774;42.178;26.578;2023-02-26T11:24:36;99381.66;;;17.44;59.77
21234;BME280;10774;42.178;26.578;2023-02-26T11:27:09;99388.84;;;17.54;59.61
21234;BME280;10774;42.178;26.578;2023-02-26T11:29:40;99387.38;;;17.59;59.11
21234;BME280;10774;42.178;26.578;2023-02-26T11:32:09;99406.28;;;17.69;58.69
21234;BME280;10774;42.178;26.578;2023-02-26T11:34:37;99405.06;;;17.81;58.31
21234;BME280;10774;42.178;26.578;2023-02-26T11:37:04;99387.41;;;17.77;57.95
21234;BME280;10774;42.178;26.578;2023-02-26T11:39:33;99401.25;;;17.92;58.30
21234;BME280;10774;42.178;26.578;2023-02-26T11:42:02;99377.72;;;18.00;57.59
21234;BME280;10774;42.178;26.578;2023-02-26T11:46:56;99372.09;;;18.20;56.34
21234;BME280;10774;42.178;26.578;2023-02-26T11:49:25;99357.50;;;18.29;55.93
21234;BME280;10774;42.178;26.578;2023-02-26T11:54:37;99380.53;;;18.17;55.27
21234;BME280;10774;42.178;26.578;2023-02-26T11:57:15;99375.00;;;18.26;54.52
21234;BME280;10774;42.178;26.578;2023-02-26T11:59:46;99373.31;;;18.34;54.82
21234;BME280;10774;42.178;26.578;2023-02-26T12:02:14;99381.28;;;18.27;54.29
21234;BME280;10774;42.178;26.578;2023-02-26T12:04:58;99382.03;;;18.11;54.43
21234;BME280;10774;42.178;26.578;2023-02-26T12:07:25;99383.25;;;18.17;55.32
21234;BME280;10774;42.178;26.578;2023-02-26T12:09:51;99388.50;;;18.18;54.29
21234;BME280;10774;42.178;26.578;2023-02-26T12:15:34;99405.50;;;18.46;54.11
21234;BME280;10774;42.178;26.578;2023-02-26T12:18:14;99415.00;;;18.42;53.91
21234;BME280;10774;42.178;26.578;2023-02-26T12:21:02;99416.59;;;18.27;53.68
21234;BME280;10774;42.178;26.578;2023-02-26T12:31:26;99404.00;;;17.74;55.79
21234;BME280;10774;42.178;26.578;2023-02-26T12:37:03;99406.97;;;17.71;56.60
21234;BME280;10774;42.178;26.578;2023-02-26T12:39:56;99399.25;;;17.58;56.81
21234;BME280;10774;42.178;26.578;2023-02-26T12:51:02;99404.75;;;17.48;58.51
21234;BME280;10774;42.178;26.578;2023-02-26T12:53:54;99399.94;;;17.42;58.32
21234;BME280;10774;42.178;26.578;2023-02-26T13:04:32;99377.38;;;17.06;58.98
21234;BME280;10774;42.178;26.578;2023-02-26T13:10:31;99407.22;;;17.06;59.40
21234;BME280;10774;42.178;26.578;2023-02-26T13:13:19;99410.47;;;17.10;59.53
21234;BME280;10774;42.178;26.578;2023-02-26T13:21:19;99397.44;;;16.95;60.87
21234;BME280;10774;42.178;26.578;2023-02-26T13:24:01;99392.16;;;16.94;61.19
21234;BME280;10774;42.178;26.578;2023-02-26T13:26:30;99399.44;;;16.93;61.22
21234;BME280;10774;42.178;26.578;2023-02-26T13:29:04;99407.72;;;16.92;61.33
21234;BME280;10774;42.178;26.578;2023-02-26T13:34:11;99414.59;;;16.86;61.59
21234;BME280;10774;42.178;26.578;2023-02-26T13:36:39;99397.25;;;16.79;63.82
21234;BME280;10774;42.178;26.578;2023-02-26T13:42:13;99412.66;;;16.79;62.05
21234;BME280;10774;42.178;26.578;2023-02-26T13:45:15;99417.84;;;16.72;62.37
21234;BME280;10774;42.178;26.578;2023-02-26T13:55:56;99427.22;;;16.68;62.01
21234;BME280;10774;42.178;26.578;2023-02-26T13:58:38;99420.97;;;16.67;61.85
21234;BME280;10774;42.178;26.578;2023-02-26T14:03:50;99415.97;;;16.63;60.79
21234;BME280;10774;42.178;26.578;2023-02-26T14:06:24;99429.22;;;16.66;60.96
21234;BME280;10774;42.178;26.578;2023-02-26T14:08:53;99420.69;;;16.61;60.38
21234;BME280;10774;42.178;26.578;2023-02-26T14:14:16;99422.09;;;16.65;60.52
21234;BME280;10774;42.178;26.578;2023-02-26T14:16:44;99429.53;;;16.63;60.55
21234;BME280;10774;42.178;26.578;2023-02-26T14:19:22;99437.25;;;16.58;60.07
21234;BME280;10774;42.178;26.578;2023-02-26T14:21:49;99444.22;;;16.60;60.28
21234;BME280;10774;42.178;26.578;2023-02-26T14:27:31;99462.94;;;16.54;59.15
21234;BME280;10774;42.178;26.578;2023-02-26T14:35:33;99447.28;;;16.38;58.95
21234;BME280;10774;42.178;26.578;2023-02-26T14:38:10;99441.31;;;16.34;60.09
21234;BME280;10774;42.178;26.578;2023-02-26T14:40:49;99468.38;;;16.44;60.45
21234;BME280;10774;42.178;26.578;2023-02-26T14:43:20;99463.53;;;16.47;60.87
21234;BME280;10774;42.178;26.578;2023-02-26T14:45:46;99465.53;;;16.45;60.72
21234;BME280;10774;42.178;26.578;2023-02-26T14:48:15;99441.03;;;16.37;60.94
21234;BME280;10774;42.178;26.578;2023-02-26T14:57:01;99451.00;;;16.46;60.86
21234;BME280;10774;42.178;26.578;2023-02-26T15:10:35;99434.59;;;16.38;61.75
21234;BME280;10774;42.178;26.578;2023-02-26T15:13:12;99429.06;;;16.40;61.98
21234;BME280;10774;42.178;26.578;2023-02-26T15:24:10;99417.28;;;16.21;63.80
21234;BME280;10774;42.178;26.578;2023-02-26T15:26:51;99417.72;;;16.17;64.04
21234;BME280;10774;42.178;26.578;2023-02-26T15:29:21;99406.44;;;16.21;64.70
21234;BME280;10774;42.178;26.578;2023-02-26T15:31:55;99416.69;;;16.18;65.27
21234;BME280;10774;42.178;26.578;2023-02-26T15:34:22;99415.16;;;16.15;65.51
21234;BME280;10774;42.178;26.578;2023-02-26T15:36:50;99411.19;;;16.10;65.34
21234;BME280;10774;42.178;26.578;2023-02-26T15:39:17;99409.47;;;16.09;65.58
21234;BME280;10774;42.178;26.578;2023-02-26T15:41:46;99426.28;;;16.03;66.08
21234;BME280;10774;42.178;26.578;2023-02-26T15:44:21;99426.00;;;16.06;65.94